AirNav   Everest Fuels
 
 1776 users online  

4Y1 Raether Airport
Howell, Michigan, USA

GOING TO HOWELL?


FAA INFORMATION EFFECTIVE 11 AUGUST 2022

Location

FAA Identifier: 4Y1
Lat/Long: 42-33-54.9050N 083-51-22.7000W
42-33.915083N 083-51.378333W
42.5652514,-83.8563056
(estimated)
Elevation: 984 ft. / 300 m (estimated)
Variation: 05W (1990)
From city: 6 miles SE of HOWELL, MI
Time zone: UTC -4 (UTC -5 during Standard Time)
Zip code: 48843

Airport Operations

Airport use: Open to the public
Activation date: 04/1983
Control tower: no
ARTCC: CLEVELAND CENTER
FSS: LANSING FLIGHT SERVICE STATION
NOTAMs facility: LAN (NOTAM-D service available)
Attendance: UNATNDD
Wind indicator: yes
Segmented circle: no

Airport Communications

CTAF: 122.9
WX AWOS-3 at OZW (7 nm NW): 118.875 (517-546-4450)

Nearby radio navigation aids

VOR radial/distance  VOR name  Freq  Var
SVMr312/14.9SALEM VORTAC114.3003W
FNTr197/24.6FLINT VORTAC116.9006W
DXOr320/30.3DETROIT VOR/DME113.4006W
CRLr333/35.7CARLETON VOR/DME115.7003W

 
NDB name  Hdg/Dist  Freq  Var  ID
TECUMSEH008/31.923906WTCU - -.-. ..-

Airport Services

Runway Information

Runway 17/35

Dimensions: 2206 x 70 ft. / 672 x 21 m
Surface: turf, in fair condition
Runway edge markings: RWY & DTHR MKD WITH 3 FT CONES.
RUNWAY 17  RUNWAY 35
Latitude: 42-34.089667N42-33.740500N
Longitude: 083-51.446000W083-51.310667W
Elevation: 984.0 ft.983.0 ft.
Traffic pattern: leftleft
Runway heading: 169 magnetic, 164 true349 magnetic, 344 true
Displaced threshold: 757 ft.740 ft.
Obstructions: 76 ft. trees, 497 ft. from runway, 80 ft. left of centerline, 6:1 slope to clear
APCH RATIO 1:1 TO DTHR OVR 83 FT TREE, 110 FT DIST, 130 FT R.
15 ft. road, 55 ft. left of centerline, 1:1 slope to clear
APCH RATIO 6:1 TO DTHR OVR 78 FT TREE, 530 FT DIST, 150 FT L.

Airport Ownership and Management from official FAA records

Ownership: Privately-owned
Owner: RODNEY F & JUDY E RAETHER
2650 FISHBECK RD
HOWELL, MI 48843-8809
Phone 517-546-4498
Manager: RODNEY F RAETHER
2650 FISHBECK RD
HOWELL, MI 48843-8809
Phone 517-546-4498

Airport Operational Statistics

Aircraft operations: 50/year *
100% transient general aviation
* for 12-month period ending 31 December 2021

Additional Remarks

HVY EQPT ADJ TO WEST SIDE OF RWY 35.
LRG BIRDS & DEER ON & INVOF ARPT.
ULTRALIGHT ACT ON & INVOF ARPT.
FOR CD CTC DETROIT APCH AT 734-955-1404.

Instrument Procedures

There are no published instrument procedures at 4Y1.

Some nearby airports with instrument procedures:

KOZW - Livingston County Spencer J Hardy Airport (7 nm NW)
Y47 - Oakland Southwest Airport (11 nm E)
9G2 - Price's Airport (15 nm N)
KPTK - Oakland County International Airport (20 nm E)
KARB - Ann Arbor Municipal Airport (21 nm S)
 
Loc | Ops | Rwys | IFR | FBO | Links
Com | Nav | Svcs | Stats | Notes
Area around 4Y1 (Raether Airport)
 
Road maps at: MapQuest Bing Google
 
Aerial photo
No photo
 
Sectional chart

 
Airport distance calculator
Flying to Raether Airport? Find the distance to fly.

From to 4Y1

Sunrise and sunset
Times for 18-Aug-2022
 Local
(UTC-4)
 Zulu
(UTC)
Morning civil twilight06:1610:16
Sunrise06:4610:46
Sunset20:3200:32
Evening civil twilight21:0201:02

Current date and time
Zulu (UTC)  18-Aug-2022 20:35:20
Local (UTC-4)  18-Aug-2022 16:35:20
 
METAR
KOZW 
6nm NW 
182015Z AUTO 27009KT 10SM CLR 27/14 A2998 RMK AO2 T02650136
TAF
KPTK 
20nm E 
181720Z 1818/1918 22007KT P6SM SCT050 FM190100 VRB02KT P6SM FEW050 FM191500 24007KT P6SM SCT050
KYIP 
25nm SE 
181120Z 1812/1912 30003KT P6SM FEW250 TEMPO 1812/1813 5SM BR FM181600 22007KT P6SM SCT060 SCT220 FM190100 VRB02KT P6SM SCT050
KFNT 
25nm N 
181720Z 1818/1918 22007KT P6SM FEW050 FM190100 VRB02KT P6SM FEW050 FM191500 24007KT P6SM SCT050
NOTAMs
Click for the latest NOTAMs
NOTAMs are issued by the DoD/FAA and will open in a separate window not controlled by AirNav.

 

 
 

Would you like to see your business listed on this page?

 If your business provides an interesting product or service to pilots, flight crews, aircraft, or users of the Raether Airport, you should consider listing it here.  To start the listing process, click on the button below
 
Add a business
 

Other Pages about Raether Airport

Page from the Michigan Airport Directory (PDF)
 
Update a link
 
Copyright © AirNav, LLC. All rights reserved. Privacy Policy  Contact